Pure Adrenalin — VJD3680 — position and weather

sailwx.info

Track history (hours):
 
Tides and Currents Weather Stations Pressure Air Temp Water Temp Dewpoint Dewpoint Depression Visibility Wind Speed Wind Dir Waves Ship Positions

Pure Adrenalin

Last reported at 2016-Apr-26 14:06 UTC. Time now 2016-Apr-30 16:59 UTC.
Position S 20°38' E 117°12'.

Length 21 m.

Type: Ship. MMSI: 503642100.

Date/timePositionNaut miles runAvg speedWind from/ knotsBaromVisibWave heightAir tempDewpointWater temp
2016-Apr-26 14:06S 20°38' E 117°12'1 0.6
2016-Apr-26 12:31S 20°38' E 117°12'0 0.0
2016-Apr-26 11:13S 20°38' E 117°12'0 0.5
2016-Apr-26 10:31S 20°38' E 117°12'9 6.3
2016-Apr-26 09:05S 20°33' E 117°20'1016.9
2016-Apr-26 08:30S 20°38' E 117°12'  
2016-Apr-21 07:19S 20°38' E 117°12'0 0.0
2016-Apr-21 05:22S 20°38' E 117°12'0 0.0
2016-Apr-21 04:31S 20°38' E 117°12'0 0.1
2016-Apr-21 03:32S 20°38' E 117°12'3 3.2
2016-Apr-21 02:30S 20°36' E 117°14'3 1.1
2016-Apr-20 23:28S 20°34' E 117°17'7 0.5
2016-Apr-20 10:23S 20°38' E 117°12'1 1.0
2016-Apr-20 09:29S 20°38' E 117°12'1313.9
2016-Apr-20 08:32S 20°28' E 117°21'1010.4
2016-Apr-20 07:33S 20°21' E 117°29'1919.2
2016-Apr-20 06:33S 20°35' E 117°15'5 4.3
2016-Apr-20 05:26S 20°38' E 117°12'0 0.0
2016-Apr-20 04:32S 20°38' E 117°12'0 0.0
2016-Apr-20 01:26S 20°38' E 117°12'0 0.0
2016-Apr-19 05:33S 20°38' E 117°12'4 3.5
2016-Apr-19 04:33S 20°35' E 117°12'2 2.4
2016-Apr-19 03:31S 20°37' E 117°12'1 1.3
2016-Apr-19 02:30S 20°38' E 117°12'0 0.0
2016-Apr-19 01:20S 20°38' E 117°12'0 0.0
2016-Apr-17 03:19S 20°38' E 117°12'  
Track history (hours):
 
Tides and Currents Weather Stations Pressure Air Temp Water Temp Dewpoint Dewpoint Depression Visibility Wind Speed Wind Dir Waves Ship Positions

Pure Adrenalin

Last reported at 2016-Apr-26 14:06 UTC. Time now 2016-Apr-30 16:59 UTC.
Position S 20°38' E 117°12'.

Length 21 m.

Type: Ship. MMSI: 503642100.

Date/timePositionNaut miles runAvg speedWind from/ knotsBaromVisibWave heightAir tempDewpointWater temp
2016-Apr-26 14:06S 20°38' E 117°12'1 0.6
2016-Apr-26 12:31S 20°38' E 117°12'0 0.0
2016-Apr-26 11:13S 20°38' E 117°12'0 0.5
2016-Apr-26 10:31S 20°38' E 117°12'9 6.3
2016-Apr-26 09:05S 20°33' E 117°20'1016.9
2016-Apr-26 08:30S 20°38' E 117°12'  
2016-Apr-21 07:19S 20°38' E 117°12'0 0.0
2016-Apr-21 05:22S 20°38' E 117°12'0 0.0
2016-Apr-21 04:31S 20°38' E 117°12'0 0.1
2016-Apr-21 03:32S 20°38' E 117°12'3 3.2
2016-Apr-21 02:30S 20°36' E 117°14'3 1.1
2016-Apr-20 23:28S 20°34' E 117°17'7 0.5
2016-Apr-20 10:23S 20°38' E 117°12'1 1.0
2016-Apr-20 09:29S 20°38' E 117°12'1313.9
2016-Apr-20 08:32S 20°28' E 117°21'1010.4
2016-Apr-20 07:33S 20°21' E 117°29'1919.2
2016-Apr-20 06:33S 20°35' E 117°15'5 4.3
2016-Apr-20 05:26S 20°38' E 117°12'0 0.0
2016-Apr-20 04:32S 20°38' E 117°12'0 0.0
2016-Apr-20 01:26S 20°38' E 117°12'0 0.0
2016-Apr-19 05:33S 20°38' E 117°12'4 3.5
2016-Apr-19 04:33S 20°35' E 117°12'2 2.4
2016-Apr-19 03:31S 20°37' E 117°12'1 1.3
2016-Apr-19 02:30S 20°38' E 117°12'0 0.0
2016-Apr-19 01:20S 20°38' E 117°12'0 0.0
2016-Apr-17 03:19S 20°38' E 117°12'  

Dump ship's entire track history